LAN8058 SBGR-FAOR
Flight info
| Callsign | LAN8058 |
|---|---|
| Flight time | N/A |
| Altitude | 35000 |
| Route | UREMI DCT DORLU UZ42 UGRAD DCT CIDER DCT 26S035W/N0486F370 27S030W 28S025W 29S020W 30S015W 30S010W 30S005W/N0482F390 30S000E 30S005E 30S010E DCT UVGOD DCT ABV UQ11 AVUSA UQ19 AVAGO AVAGO1D |
| Aircraft | B789/H-SDE1E2E3FGHIJ2J3J4J5M1RWXY/LB1D1 |
Departure
| Time | 2026-05-08 04:51 |
|---|---|
| Airport | São Paulo/Guarulhos–Governor André Franco Montoro International Airport (SBGR) |
Arrival
| Time | N/A |
|---|---|
| Airport | O.R. Tambo International Airport (FAOR) |
| Time | Latitude | Longitude | Altitude | Speed | Heading |
|---|---|---|---|---|---|
| 2026-05-08 04:29 | -23.42581 | -46.47319 | 351 ft | 0 kts | 253° |
| 2026-05-08 04:41 | -23.42577 | -46.47305 | 2473 ft | 4 kts | 253° |
| 2026-05-08 04:41 | -23.42569 | -46.47277 | 2470 ft | 4 kts | 253° |
| 2026-05-08 04:41 | -23.42563 | -46.47255 | 2473 ft | 4 kts | 244° |
| 2026-05-08 04:41 | -23.42549 | -46.47233 | 2471 ft | 4 kts | 219° |
| 2026-05-08 04:42 | -23.42530 | -46.47222 | 2470 ft | 4 kts | 182° |
| 2026-05-08 04:42 | -23.42507 | -46.47226 | 2475 ft | 4 kts | 164° |
| 2026-05-08 04:42 | -23.42481 | -46.47235 | 2469 ft | 3 kts | 163° |
| 2026-05-08 04:42 | -23.42478 | -46.47236 | 2469 ft | 0 kts | 163° |
| 2026-05-08 04:45 | -23.42482 | -46.47234 | 2469 ft | 3 kts | 163° |
| 2026-05-08 04:45 | -23.42522 | -46.47222 | 2470 ft | 10 kts | 164° |
| 2026-05-08 04:45 | -23.42618 | -46.47192 | 2471 ft | 19 kts | 164° |
| 2026-05-08 04:46 | -23.42756 | -46.47149 | 2472 ft | 20 kts | 164° |
| 2026-05-08 04:46 | -23.42859 | -46.47117 | 2473 ft | 14 kts | 166° |
| 2026-05-08 04:46 | -23.42929 | -46.47154 | 2474 ft | 12 kts | 236° |
| 2026-05-08 04:46 | -23.42960 | -46.47241 | 2470 ft | 13 kts | 253° |
| 2026-05-08 04:47 | -23.42984 | -46.47336 | 2474 ft | 13 kts | 254° |
| 2026-05-08 04:47 | -23.43011 | -46.47434 | 2473 ft | 14 kts | 253° |
| 2026-05-08 04:47 | -23.43040 | -46.47540 | 2473 ft | 15 kts | 254° |
| 2026-05-08 04:47 | -23.43071 | -46.47656 | 2474 ft | 16 kts | 253° |
| 2026-05-08 04:48 | -23.43103 | -46.47776 | 2471 ft | 17 kts | 253° |
| 2026-05-08 04:48 | -23.43137 | -46.47899 | 2474 ft | 17 kts | 253° |
| 2026-05-08 04:48 | -23.43171 | -46.48027 | 2477 ft | 17 kts | 253° |
| 2026-05-08 04:48 | -23.43205 | -46.48150 | 2477 ft | 17 kts | 253° |
| 2026-05-08 04:49 | -23.43238 | -46.48267 | 2476 ft | 16 kts | 252° |
| 2026-05-08 04:49 | -23.43308 | -46.48353 | 2475 ft | 16 kts | 198° |
| 2026-05-08 04:49 | -23.43398 | -46.48326 | 2473 ft | 6 kts | 133° |
| 2026-05-08 04:49 | -23.43403 | -46.48314 | 2467 ft | 4 kts | 115° |
| 2026-05-08 04:50 | -23.43406 | -46.48258 | 2469 ft | 18 kts | 80° |
| 2026-05-08 04:50 | -23.43317 | -46.47927 | 2471 ft | 75 kts | 73° |
| 2026-05-08 04:50 | -23.43115 | -46.47180 | 2466 ft | 129 kts | 73° |
| 2026-05-08 04:50 | -23.42818 | -46.46082 | 2468 ft | 173 kts | 73° |
| 2026-05-08 04:51 | -23.42472 | -46.44749 | 2903 ft | 180 kts | 75° |
| 2026-05-08 04:51 | -23.42141 | -46.43418 | 3313 ft | 182 kts | 73° |
| 2026-05-08 04:51 | -23.41730 | -46.42061 | 3312 ft | 202 kts | 67° |
| 2026-05-08 04:51 | -23.41214 | -46.40624 | 3794 ft | 204 kts | 68° |
| 2026-05-08 04:52 | -23.40777 | -46.39142 | 4295 ft | 210 kts | 70° |
| 2026-05-08 04:52 | -23.40337 | -46.37562 | 4544 ft | 227 kts | 70° |
| 2026-05-08 04:52 | -23.40076 | -46.35787 | 4576 ft | 258 kts | 94° |
| 2026-05-08 04:52 | -23.40648 | -46.33849 | 4992 ft | 274 kts | 110° |
| 2026-05-08 04:53 | -23.41376 | -46.31924 | 5702 ft | 276 kts | 109° |
| 2026-05-08 04:53 | -23.42042 | -46.29949 | 6370 ft | 280 kts | 107° |
| 2026-05-08 04:53 | -23.42674 | -46.27932 | 7019 ft | 283 kts | 107° |
| 2026-05-08 04:53 | -23.43325 | -46.25911 | 7694 ft | 285 kts | 108° |
| 2026-05-08 04:54 | -23.43934 | -46.23855 | 8283 ft | 288 kts | 101° |
| 2026-05-08 04:54 | -23.44254 | -46.21705 | 8940 ft | 288 kts | 99° |
| 2026-05-08 04:54 | -23.44647 | -46.19557 | 9628 ft | 290 kts | 101° |
| 2026-05-08 04:54 | -23.45049 | -46.17397 | 10233 ft | 293 kts | 100° |
| 2026-05-08 04:55 | -23.45436 | -46.15165 | 10526 ft | 309 kts | 99° |
| 2026-05-08 04:55 | -23.45835 | -46.12809 | 10823 ft | 324 kts | 99° |
| 2026-05-08 04:55 | -23.46260 | -46.10344 | 11114 ft | 338 kts | 100° |
| 2026-05-08 04:55 | -23.46706 | -46.07796 | 11608 ft | 345 kts | 100° |
| 2026-05-08 04:56 | -23.47155 | -46.05214 | 12224 ft | 349 kts | 100° |
| 2026-05-08 04:56 | -23.47607 | -46.02588 | 12671 ft | 357 kts | 100° |
| 2026-05-08 04:56 | -23.48067 | -45.99911 | 12921 ft | 360 kts | 100° |
| 2026-05-08 04:56 | -23.48529 | -45.97232 | 12998 ft | 360 kts | 100° |
| 2026-05-08 04:57 | -23.48979 | -45.94555 | 12994 ft | 358 kts | 98° |
| 2026-05-08 04:57 | -23.49059 | -45.93683 | 12958 ft | 358 kts | 92° |
| 2026-05-08 04:57 | -23.48968 | -45.92202 | 12952 ft | 359 kts | 80° |
| 2026-05-08 04:57 | -23.48330 | -45.89605 | 13576 ft | 358 kts | 74° |
| 2026-05-08 04:58 | -23.47671 | -45.86991 | 14240 ft | 359 kts | 75° |
| 2026-05-08 04:58 | -23.47036 | -45.84350 | 14792 ft | 362 kts | 76° |
| 2026-05-08 04:58 | -23.46395 | -45.81688 | 15310 ft | 365 kts | 76° |
| 2026-05-08 04:58 | -23.45734 | -45.79000 | 15842 ft | 369 kts | 76° |
| 2026-05-08 04:59 | -23.45064 | -45.76287 | 16351 ft | 373 kts | 76° |
| 2026-05-08 04:59 | -23.44391 | -45.73545 | 16868 ft | 377 kts | 76° |
| 2026-05-08 04:59 | -23.43714 | -45.70775 | 17362 ft | 380 kts | 76° |
| 2026-05-08 04:59 | -23.43028 | -45.67982 | 17893 ft | 384 kts | 76° |
| 2026-05-08 05:00 | -23.42333 | -45.65165 | 18392 ft | 387 kts | 76° |
| 2026-05-08 05:00 | -23.41632 | -45.62319 | 18835 ft | 391 kts | 76° |
| 2026-05-08 05:00 | -23.40930 | -45.59455 | 19259 ft | 394 kts | 77° |
| 2026-05-08 05:00 | -23.40217 | -45.56565 | 19713 ft | 397 kts | 77° |
| 2026-05-08 05:01 | -23.39496 | -45.53650 | 20154 ft | 401 kts | 77° |
| 2026-05-08 05:01 | -23.38789 | -45.50705 | 20554 ft | 403 kts | 79° |
| 2026-05-08 05:01 | -23.38192 | -45.47706 | 20938 ft | 407 kts | 79° |
| 2026-05-08 05:01 | -23.37519 | -45.44697 | 21359 ft | 411 kts | 78° |
| 2026-05-08 05:02 | -23.36843 | -45.41663 | 21780 ft | 414 kts | 79° |
| 2026-05-08 05:02 | -23.36199 | -45.38596 | 22209 ft | 417 kts | 79° |
| 2026-05-08 05:02 | -23.35555 | -45.35501 | 22604 ft | 421 kts | 79° |
| 2026-05-08 05:02 | -23.34887 | -45.32387 | 23008 ft | 425 kts | 79° |
| 2026-05-08 05:03 | -23.34204 | -45.29252 | 23403 ft | 428 kts | 79° |
| 2026-05-08 05:03 | -23.33525 | -45.26088 | 23754 ft | 431 kts | 79° |
| 2026-05-08 05:03 | -23.32846 | -45.22897 | 24082 ft | 434 kts | 79° |
| 2026-05-08 05:03 | -23.32157 | -45.19686 | 24415 ft | 437 kts | 79° |
| 2026-05-08 05:04 | -23.31459 | -45.16455 | 24735 ft | 440 kts | 79° |
| 2026-05-08 05:04 | -23.30758 | -45.13204 | 25063 ft | 443 kts | 80° |
| 2026-05-08 05:04 | -23.30055 | -45.09933 | 25393 ft | 446 kts | 80° |
| 2026-05-08 05:04 | -23.29346 | -45.06641 | 25715 ft | 448 kts | 80° |
| 2026-05-08 05:05 | -23.28629 | -45.03330 | 26035 ft | 451 kts | 80° |
| 2026-05-08 05:05 | -23.27908 | -44.99999 | 26362 ft | 454 kts | 80° |
| 2026-05-08 05:05 | -23.27359 | -44.97463 | 26610 ft | 456 kts | 80° |
| 2026-05-08 05:06 | -23.26631 | -44.94098 | 26926 ft | 459 kts | 80° |
| 2026-05-08 05:06 | -23.25898 | -44.90720 | 27237 ft | 462 kts | 80° |
| 2026-05-08 05:06 | -23.25158 | -44.87312 | 27574 ft | 464 kts | 80° |
| 2026-05-08 05:06 | -23.24412 | -44.83886 | 27892 ft | 467 kts | 80° |
| 2026-05-08 05:07 | -23.23662 | -44.80437 | 28174 ft | 470 kts | 81° |
| 2026-05-08 05:07 | -23.22906 | -44.76966 | 28486 ft | 472 kts | 81° |
| 2026-05-08 05:07 | -23.22145 | -44.73479 | 28759 ft | 476 kts | 81° |
| 2026-05-08 05:07 | -23.21379 | -44.69972 | 29066 ft | 478 kts | 81° |
| 2026-05-08 05:08 | -23.20608 | -44.66445 | 29379 ft | 481 kts | 81° |
| 2026-05-08 05:08 | -23.19834 | -44.62909 | 29668 ft | 483 kts | 81° |
| 2026-05-08 05:08 | -23.19052 | -44.59334 | 29945 ft | 486 kts | 81° |
| 2026-05-08 05:08 | -23.18266 | -44.55758 | 30220 ft | 489 kts | 81° |
| 2026-05-08 05:09 | -23.17474 | -44.52158 | 30477 ft | 491 kts | 81° |
| 2026-05-08 05:09 | -23.16679 | -44.48538 | 30744 ft | 493 kts | 81° |
| 2026-05-08 05:09 | -23.15880 | -44.44906 | 31010 ft | 495 kts | 81° |
| 2026-05-08 05:09 | -23.15348 | -44.42490 | 31194 ft | 496 kts | 81° |
| 2026-05-08 05:10 | -23.14543 | -44.38843 | 31457 ft | 499 kts | 81° |
| 2026-05-08 05:10 | -23.12916 | -44.31480 | 31983 ft | 503 kts | 81° |
| 2026-05-08 05:10 | -23.12096 | -44.27778 | 32245 ft | 505 kts | 81° |
| 2026-05-08 05:11 | -23.11274 | -44.24069 | 32509 ft | 508 kts | 81° |
| 2026-05-08 05:11 | -23.10445 | -44.20330 | 32764 ft | 511 kts | 81° |
| 2026-05-08 05:11 | -23.09611 | -44.16576 | 33059 ft | 512 kts | 81° |
| 2026-05-08 05:11 | -23.08773 | -44.12811 | 33327 ft | 514 kts | 81° |
| 2026-05-08 05:12 | -23.07931 | -44.09030 | 33590 ft | 516 kts | 81° |
| 2026-05-08 05:12 | -23.07085 | -44.05234 | 33851 ft | 518 kts | 81° |
| 2026-05-08 05:12 | -23.06235 | -44.01424 | 34089 ft | 520 kts | 81° |
| 2026-05-08 05:12 | -23.05379 | -43.97596 | 34306 ft | 523 kts | 81° |
| 2026-05-08 05:13 | -23.04519 | -43.93757 | 34545 ft | 524 kts | 81° |
| 2026-05-08 05:13 | -23.03658 | -43.89914 | 34835 ft | 524 kts | 81° |
| 2026-05-08 05:13 | -23.02797 | -43.86072 | 35130 ft | 524 kts | 81° |
| 2026-05-08 05:13 | -23.01934 | -43.82229 | 35414 ft | 524 kts | 81° |
| 2026-05-08 05:14 | -23.01070 | -43.78390 | 35715 ft | 524 kts | 82° |
| 2026-05-08 05:14 | -23.00375 | -43.74531 | 35927 ft | 518 kts | 90° |
| 2026-05-08 05:14 | -23.00309 | -43.70668 | 36209 ft | 508 kts | 100° |
| 2026-05-08 05:14 | -23.00822 | -43.66922 | 36463 ft | 498 kts | 110° |
| 2026-05-08 05:15 | -23.01858 | -43.63373 | 36743 ft | 489 kts | 118° |
| 2026-05-08 05:15 | -23.03067 | -43.59921 | 36933 ft | 491 kts | 118° |
| 2026-05-08 05:15 | -23.04276 | -43.56437 | 36967 ft | 495 kts | 117° |
| 2026-05-08 05:16 | -23.06650 | -43.49456 | 36971 ft | 490 kts | 117° |
| 2026-05-08 05:16 | -23.09035 | -43.42547 | 36978 ft | 488 kts | 117° |
| 2026-05-08 05:17 | -23.11400 | -43.35622 | 36973 ft | 490 kts | 117° |
| 2026-05-08 05:17 | -23.13776 | -43.28678 | 36973 ft | 491 kts | 117° |
| 2026-05-08 05:18 | -23.16153 | -43.21711 | 36982 ft | 492 kts | 117° |
| 2026-05-08 05:18 | -23.18527 | -43.14741 | 36981 ft | 491 kts | 117° |
| 2026-05-08 05:19 | -23.20898 | -43.07774 | 36985 ft | 491 kts | 117° |
| 2026-05-08 05:19 | -23.23268 | -43.00799 | 36965 ft | 492 kts | 116° |
| 2026-05-08 05:20 | -23.25656 | -42.93738 | 36986 ft | 503 kts | 115° |
| 2026-05-08 05:20 | -23.28110 | -42.86517 | 37008 ft | 514 kts | 115° |
| 2026-05-08 05:21 | -23.30573 | -42.79204 | 37007 ft | 515 kts | 115° |
| 2026-05-08 05:21 | -23.33036 | -42.71912 | 37008 ft | 512 kts | 115° |
| 2026-05-08 05:22 | -23.35482 | -42.64645 | 37006 ft | 511 kts | 115° |
| 2026-05-08 05:22 | -23.37929 | -42.57366 | 37009 ft | 513 kts | 115° |
| 2026-05-08 05:23 | -23.40378 | -42.50068 | 37011 ft | 514 kts | 115° |
| 2026-05-08 05:23 | -23.42829 | -42.42749 | 37020 ft | 515 kts | 115° |
| 2026-05-08 05:24 | -23.45277 | -42.35427 | 37016 ft | 514 kts | 115° |
| 2026-05-08 05:24 | -23.47714 | -42.28125 | 37017 ft | 512 kts | 115° |
| 2026-05-08 05:25 | -23.50141 | -42.20841 | 37015 ft | 511 kts | 115° |
| 2026-05-08 05:25 | -23.52545 | -42.13615 | 37015 ft | 511 kts | 115° |
| 2026-05-08 05:26 | -23.54968 | -42.06318 | 37029 ft | 513 kts | 115° |
| 2026-05-08 05:26 | -23.57395 | -41.98995 | 37034 ft | 514 kts | 115° |
| 2026-05-08 05:27 | -23.59822 | -41.91659 | 37037 ft | 515 kts | 115° |
| 2026-05-08 05:27 | -23.62245 | -41.84318 | 37042 ft | 514 kts | 115° |
| 2026-05-08 05:28 | -23.64659 | -41.76996 | 37041 ft | 512 kts | 115° |
| 2026-05-08 05:28 | -23.67064 | -41.69688 | 37038 ft | 511 kts | 115° |
| 2026-05-08 05:29 | -23.69461 | -41.62390 | 37041 ft | 511 kts | 115° |
| 2026-05-08 05:29 | -23.71856 | -41.55089 | 37051 ft | 513 kts | 115° |
| 2026-05-08 05:30 | -23.74259 | -41.47745 | 37048 ft | 514 kts | 115° |
| 2026-05-08 05:30 | -23.76660 | -41.40393 | 37051 ft | 514 kts | 115° |
| 2026-05-08 05:31 | -23.79055 | -41.33050 | 37055 ft | 512 kts | 115° |
| 2026-05-08 05:31 | -23.81440 | -41.25724 | 37055 ft | 511 kts | 115° |
| 2026-05-08 05:32 | -23.83814 | -41.18415 | 37058 ft | 510 kts | 115° |
| 2026-05-08 05:32 | -23.86183 | -41.11114 | 37062 ft | 512 kts | 115° |
| 2026-05-08 05:33 | -23.88562 | -41.03763 | 37058 ft | 513 kts | 115° |
| 2026-05-08 05:33 | -23.90896 | -40.96541 | 37069 ft | 513 kts | 115° |
| 2026-05-08 05:34 | -23.93261 | -40.89207 | 37067 ft | 512 kts | 115° |
| 2026-05-08 05:34 | -23.95619 | -40.81884 | 37071 ft | 510 kts | 115° |
| 2026-05-08 05:35 | -23.97969 | -40.74572 | 37070 ft | 509 kts | 115° |
| 2026-05-08 05:35 | -24.00316 | -40.67257 | 37073 ft | 508 kts | 115° |
| 2026-05-08 05:36 | -24.02652 | -40.59961 | 37077 ft | 509 kts | 115° |
| 2026-05-08 05:36 | -24.04992 | -40.52641 | 37070 ft | 510 kts | 115° |
| 2026-05-08 05:37 | -24.07324 | -40.45326 | 37074 ft | 510 kts | 115° |
| 2026-05-08 05:37 | -24.09654 | -40.38009 | 37074 ft | 509 kts | 115° |
| 2026-05-08 05:38 | -24.11964 | -40.30742 | 37078 ft | 507 kts | 115° |
| 2026-05-08 05:38 | -24.14464 | -40.23560 | 37073 ft | 503 kts | 118° |
| 2026-05-08 05:39 | -24.17149 | -40.16469 | 37080 ft | 505 kts | 117° |
| 2026-05-08 05:39 | -24.19813 | -40.09359 | 37083 ft | 506 kts | 118° |
| 2026-05-08 05:40 | -24.22492 | -40.02252 | 37088 ft | 504 kts | 117° |
| 2026-05-08 05:40 | -24.25149 | -39.95154 | 37086 ft | 501 kts | 117° |
| 2026-05-08 05:41 | -24.27792 | -39.88107 | 37082 ft | 500 kts | 117° |
| 2026-05-08 05:41 | -24.30437 | -39.81027 | 37088 ft | 502 kts | 117° |
| 2026-05-08 05:42 | -24.33077 | -39.73955 | 37096 ft | 503 kts | 117° |
| 2026-05-08 05:42 | -24.35721 | -39.66859 | 37095 ft | 503 kts | 117° |
| 2026-05-08 05:43 | -24.38356 | -39.59774 | 37098 ft | 501 kts | 117° |
| 2026-05-08 05:43 | -24.40983 | -39.52701 | 37098 ft | 499 kts | 117° |
| 2026-05-08 05:44 | -24.43599 | -39.45647 | 37096 ft | 498 kts | 116° |
| 2026-05-08 05:44 | -24.46195 | -39.38633 | 37099 ft | 497 kts | 116° |
| 2026-05-08 05:45 | -24.48792 | -39.31606 | 37099 ft | 496 kts | 116° |
| 2026-05-08 05:45 | -24.51386 | -39.24578 | 37102 ft | 497 kts | 116° |
| 2026-05-08 05:46 | -24.53981 | -39.17530 | 37103 ft | 498 kts | 116° |
| 2026-05-08 05:46 | -24.56560 | -39.10516 | 37102 ft | 498 kts | 116° |
| 2026-05-08 05:47 | -24.59164 | -39.03422 | 37109 ft | 498 kts | 116° |
| 2026-05-08 05:47 | -24.61728 | -38.96426 | 37105 ft | 497 kts | 116° |
| 2026-05-08 05:48 | -24.64307 | -38.89377 | 37106 ft | 497 kts | 116° |
| 2026-05-08 05:48 | -24.66885 | -38.82318 | 37112 ft | 498 kts | 116° |
| 2026-05-08 05:49 | -24.69460 | -38.75256 | 37100 ft | 498 kts | 116° |
| 2026-05-08 05:49 | -24.72032 | -38.68188 | 37102 ft | 497 kts | 116° |
| 2026-05-08 05:50 | -24.74594 | -38.61137 | 37099 ft | 496 kts | 115° |
| 2026-05-08 05:50 | -24.77145 | -38.54105 | 37100 ft | 494 kts | 115° |
| 2026-05-08 05:51 | -24.79689 | -38.47080 | 37108 ft | 492 kts | 115° |
| 2026-05-08 05:51 | -24.82198 | -38.40141 | 37107 ft | 490 kts | 115° |
| 2026-05-08 05:52 | -24.84711 | -38.33177 | 37119 ft | 489 kts | 115° |
| 2026-05-08 05:52 | -24.87235 | -38.26175 | 37123 ft | 490 kts | 115° |
| 2026-05-08 05:53 | -24.89732 | -38.19232 | 37118 ft | 491 kts | 115° |
| 2026-05-08 05:53 | -24.92239 | -38.12251 | 37117 ft | 491 kts | 115° |
| 2026-05-08 05:54 | -24.94747 | -38.05254 | 37120 ft | 490 kts | 116° |
| 2026-05-08 05:54 | -24.97246 | -37.98270 | 37122 ft | 489 kts | 116° |
| 2026-05-08 05:55 | -24.99735 | -37.91302 | 37129 ft | 488 kts | 116° |
| 2026-05-08 05:55 | -25.02219 | -37.84341 | 37121 ft | 490 kts | 116° |
| 2026-05-08 05:56 | -25.04713 | -37.77336 | 37127 ft | 491 kts | 116° |
| 2026-05-08 05:56 | -25.07209 | -37.70313 | 37132 ft | 492 kts | 116° |
| 2026-05-08 05:57 | -25.09280 | -37.64475 | 37122 ft | 490 kts | 116° |
| 2026-05-08 05:57 | -25.11758 | -37.57480 | 37123 ft | 489 kts | 116° |
| 2026-05-08 05:58 | -25.14229 | -37.50496 | 37126 ft | 489 kts | 116° |
| 2026-05-08 05:58 | -25.17108 | -37.42340 | 37130 ft | 492 kts | 116° |
| 2026-05-08 05:59 | -25.19184 | -37.36449 | 37133 ft | 493 kts | 116° |
| 2026-05-08 05:59 | -25.21674 | -37.29373 | 37130 ft | 493 kts | 116° |
| 2026-05-08 06:00 | -25.24152 | -37.22316 | 37130 ft | 491 kts | 116° |
| 2026-05-08 06:00 | -25.26597 | -37.15344 | 37128 ft | 490 kts | 116° |
| 2026-05-08 06:01 | -25.29059 | -37.08310 | 37132 ft | 492 kts | 116° |
| 2026-05-08 06:01 | -25.31529 | -37.01240 | 37140 ft | 494 kts | 116° |
| 2026-05-08 06:02 | -25.33997 | -36.94160 | 37136 ft | 493 kts | 115° |
| 2026-05-08 06:02 | -25.36457 | -36.87095 | 37136 ft | 492 kts | 115° |
| 2026-05-08 06:03 | -25.38904 | -36.80054 | 37136 ft | 491 kts | 115° |
| 2026-05-08 06:03 | -25.41346 | -36.73014 | 37142 ft | 490 kts | 115° |
| 2026-05-08 06:04 | -25.43783 | -36.65977 | 37141 ft | 490 kts | 115° |
| 2026-05-08 06:04 | -25.46220 | -36.58928 | 37145 ft | 491 kts | 115° |
| 2026-05-08 06:05 | -25.48660 | -36.51854 | 37148 ft | 492 kts | 115° |
| 2026-05-08 06:05 | -25.51096 | -36.44783 | 37149 ft | 492 kts | 114° |
| 2026-05-08 06:06 | -25.53533 | -36.37694 | 37150 ft | 491 kts | 114° |
| 2026-05-08 06:06 | -25.55958 | -36.30628 | 37156 ft | 491 kts | 114° |
| 2026-05-08 06:07 | -25.58363 | -36.23607 | 37151 ft | 490 kts | 114° |
| 2026-05-08 06:07 | -25.60792 | -36.16504 | 37153 ft | 490 kts | 114° |
| 2026-05-08 06:08 | -25.63205 | -36.09438 | 37155 ft | 491 kts | 114° |
| 2026-05-08 06:08 | -25.65611 | -36.02375 | 37159 ft | 493 kts | 114° |
| 2026-05-08 06:09 | -25.68022 | -35.95285 | 37155 ft | 493 kts | 114° |
| 2026-05-08 06:09 | -25.70433 | -35.88182 | 37147 ft | 492 kts | 113° |
| 2026-05-08 06:10 | -25.72835 | -35.81093 | 37146 ft | 491 kts | 113° |
| 2026-05-08 06:10 | -25.75230 | -35.74014 | 37146 ft | 489 kts | 113° |
| 2026-05-08 06:11 | -25.77614 | -35.66953 | 37146 ft | 490 kts | 113° |
| 2026-05-08 06:11 | -25.80004 | -35.59861 | 37156 ft | 491 kts | 113° |
| 2026-05-08 06:12 | -25.82398 | -35.52742 | 37167 ft | 493 kts | 113° |
| 2026-05-08 06:12 | -25.84792 | -35.45612 | 37159 ft | 492 kts | 112° |
| 2026-05-08 06:13 | -25.87173 | -35.38507 | 37153 ft | 490 kts | 112° |
| 2026-05-08 06:13 | -25.89546 | -35.31414 | 37156 ft | 490 kts | 112° |
| 2026-05-08 06:14 | -25.91915 | -35.24319 | 37162 ft | 491 kts | 112° |
| 2026-05-08 06:14 | -25.94291 | -35.17191 | 37168 ft | 492 kts | 112° |
| 2026-05-08 06:15 | -25.96666 | -35.10050 | 37174 ft | 493 kts | 112° |
| 2026-05-08 06:15 | -25.99046 | -35.02883 | 37174 ft | 494 kts | 112° |
| 2026-05-08 06:16 | -26.01010 | -34.95582 | 37172 ft | 494 kts | 105° |
| 2026-05-08 06:16 | -26.02571 | -34.88124 | 37176 ft | 495 kts | 105° |
| 2026-05-08 06:17 | -26.05037 | -34.76954 | 37172 ft | 496 kts | 105° |
| 2026-05-08 06:17 | -26.06632 | -34.69561 | 37180 ft | 494 kts | 105° |
| 2026-05-08 06:18 | -26.08248 | -34.62146 | 37170 ft | 493 kts | 105° |
| 2026-05-08 06:18 | -26.09843 | -34.54724 | 37171 ft | 494 kts | 105° |
| 2026-05-08 06:19 | -26.11454 | -34.47275 | 37176 ft | 496 kts | 105° |
| 2026-05-08 06:19 | -26.13066 | -34.39756 | 37180 ft | 497 kts | 105° |
| 2026-05-08 06:20 | -26.14661 | -34.32322 | 37180 ft | 497 kts | 105° |
| 2026-05-08 06:20 | -26.16256 | -34.24849 | 37183 ft | 496 kts | 104° |
| 2026-05-08 06:21 | -26.17845 | -34.17401 | 37177 ft | 495 kts | 104° |
| 2026-05-08 06:21 | -26.19430 | -34.09943 | 37179 ft | 495 kts | 104° |
| 2026-05-08 06:22 | -26.21014 | -34.02470 | 37182 ft | 497 kts | 104° |
| 2026-05-08 06:22 | -26.22598 | -33.94977 | 37187 ft | 497 kts | 104° |
| 2026-05-08 06:23 | -26.24182 | -33.87462 | 37185 ft | 497 kts | 104° |
| 2026-05-08 06:23 | -26.25760 | -33.79958 | 37186 ft | 497 kts | 104° |
| 2026-05-08 06:24 | -26.27331 | -33.72465 | 37187 ft | 497 kts | 104° |
| 2026-05-08 06:24 | -26.28898 | -33.64970 | 37188 ft | 497 kts | 104° |
| 2026-05-08 06:25 | -26.30460 | -33.57480 | 37185 ft | 496 kts | 104° |
| 2026-05-08 06:25 | -26.32020 | -33.49980 | 37186 ft | 496 kts | 104° |
| 2026-05-08 06:26 | -26.33573 | -33.42492 | 37183 ft | 496 kts | 104° |
| 2026-05-08 06:26 | -26.35112 | -33.35047 | 37189 ft | 497 kts | 103° |
| 2026-05-08 06:27 | -26.36677 | -33.27461 | 37195 ft | 499 kts | 103° |
| 2026-05-08 06:27 | -26.38217 | -33.19969 | 37195 ft | 499 kts | 103° |
| 2026-05-08 06:28 | -26.39763 | -33.12432 | 37190 ft | 497 kts | 103° |
| 2026-05-08 06:28 | -26.41299 | -33.04919 | 37187 ft | 497 kts | 103° |
| 2026-05-08 06:29 | -26.42833 | -32.97396 | 37189 ft | 498 kts | 103° |
| 2026-05-08 06:29 | -26.44368 | -32.89846 | 37196 ft | 499 kts | 103° |
| 2026-05-08 06:30 | -26.45902 | -32.82282 | 37197 ft | 500 kts | 103° |
| 2026-05-08 06:30 | -26.47430 | -32.74725 | 37197 ft | 498 kts | 103° |
| 2026-05-08 06:31 | -26.48950 | -32.67184 | 37195 ft | 497 kts | 103° |
| 2026-05-08 06:31 | -26.50459 | -32.59676 | 37189 ft | 496 kts | 103° |
| 2026-05-08 06:32 | -26.51968 | -32.52149 | 37191 ft | 497 kts | 103° |
| 2026-05-08 06:32 | -26.53475 | -32.44608 | 37196 ft | 498 kts | 103° |
| 2026-05-08 06:33 | -26.54980 | -32.37057 | 37207 ft | 499 kts | 102° |
| 2026-05-08 06:33 | -26.56483 | -32.29496 | 37206 ft | 498 kts | 102° |
| 2026-05-08 06:34 | -26.57979 | -32.21942 | 37205 ft | 497 kts | 102° |
| 2026-05-08 06:34 | -26.59465 | -32.14421 | 37202 ft | 496 kts | 102° |
| 2026-05-08 06:35 | -26.60944 | -32.06910 | 37200 ft | 496 kts | 102° |
| 2026-05-08 06:35 | -26.62424 | -31.99375 | 37204 ft | 497 kts | 102° |
| 2026-05-08 06:36 | -26.63905 | -31.91810 | 37208 ft | 498 kts | 102° |
| 2026-05-08 06:36 | -26.65379 | -31.84261 | 37214 ft | 498 kts | 102° |
| 2026-05-08 06:37 | -26.66852 | -31.76698 | 37216 ft | 497 kts | 102° |
| 2026-05-08 06:37 | -26.68314 | -31.69163 | 37211 ft | 495 kts | 102° |
| 2026-05-08 06:38 | -26.69759 | -31.61697 | 37205 ft | 495 kts | 101° |
| 2026-05-08 06:38 | -26.71210 | -31.54176 | 37211 ft | 496 kts | 101° |
| 2026-05-08 06:39 | -26.72661 | -31.46630 | 37217 ft | 497 kts | 101° |
| 2026-05-08 06:39 | -26.74112 | -31.39062 | 37221 ft | 497 kts | 101° |
| 2026-05-08 06:40 | -26.75555 | -31.31515 | 37220 ft | 496 kts | 101° |
| 2026-05-08 06:40 | -26.76992 | -31.23978 | 37221 ft | 494 kts | 101° |
| 2026-05-08 06:41 | -26.78420 | -31.16467 | 37216 ft | 493 kts | 101° |
| 2026-05-08 06:41 | -26.79841 | -31.08965 | 37213 ft | 493 kts | 101° |
| 2026-05-08 06:42 | -26.81260 | -31.01451 | 37218 ft | 494 kts | 101° |
| 2026-05-08 06:42 | -26.82678 | -30.93922 | 37217 ft | 494 kts | 101° |
| 2026-05-08 06:43 | -26.84092 | -30.86392 | 37223 ft | 495 kts | 101° |
| 2026-05-08 06:43 | -26.85504 | -30.78848 | 37222 ft | 494 kts | 101° |
| 2026-05-08 06:44 | -26.86906 | -30.71334 | 37226 ft | 492 kts | 101° |
| 2026-05-08 06:44 | -26.88301 | -30.63835 | 37219 ft | 491 kts | 101° |
| 2026-05-08 06:45 | -26.89463 | -30.57570 | 37216 ft | 490 kts | 101° |
| 2026-05-08 06:45 | -26.90847 | -30.50085 | 37220 ft | 491 kts | 101° |
| 2026-05-08 06:46 | -26.92221 | -30.42636 | 37224 ft | 492 kts | 101° |
| 2026-05-08 06:46 | -26.93603 | -30.35118 | 37226 ft | 492 kts | 101° |
| 2026-05-08 06:47 | -26.94977 | -30.27617 | 37224 ft | 492 kts | 101° |
| 2026-05-08 06:47 | -26.96349 | -30.20107 | 37229 ft | 492 kts | 100° |
| 2026-05-08 06:48 | -26.97719 | -30.12586 | 37236 ft | 492 kts | 100° |
| 2026-05-08 06:48 | -26.99081 | -30.05082 | 37231 ft | 490 kts | 100° |
| 2026-05-08 06:49 | -27.00526 | -29.97633 | 37229 ft | 489 kts | 103° |
| 2026-05-08 06:49 | -27.02148 | -29.90213 | 37229 ft | 490 kts | 102° |
| 2026-05-08 06:50 | -27.03771 | -29.82774 | 37233 ft | 490 kts | 103° |
| 2026-05-08 06:50 | -27.05397 | -29.75349 | 37231 ft | 490 kts | 102° |
| 2026-05-08 06:51 | -27.07002 | -29.67940 | 37230 ft | 488 kts | 103° |
| 2026-05-08 06:51 | -27.08612 | -29.60542 | 37232 ft | 487 kts | 103° |
| 2026-05-08 06:52 | -27.10201 | -29.53177 | 37232 ft | 485 kts | 103° |
| 2026-05-08 06:52 | -27.11780 | -29.45868 | 37239 ft | 486 kts | 103° |
| 2026-05-08 06:53 | -27.13370 | -29.38475 | 37239 ft | 487 kts | 103° |
| 2026-05-08 06:53 | -27.14957 | -29.31080 | 37243 ft | 487 kts | 103° |
| 2026-05-08 06:54 | -27.16534 | -29.23711 | 37245 ft | 485 kts | 103° |
| 2026-05-08 06:54 | -27.18109 | -29.16331 | 37240 ft | 484 kts | 103° |
| 2026-05-08 06:55 | -27.19672 | -29.08987 | 37243 ft | 483 kts | 103° |
| 2026-05-08 06:55 | -27.21224 | -29.01675 | 37239 ft | 482 kts | 103° |
| 2026-05-08 06:56 | -27.22780 | -28.94323 | 37245 ft | 484 kts | 103° |
| 2026-05-08 06:56 | -27.24331 | -28.86974 | 37257 ft | 485 kts | 103° |
| 2026-05-08 06:57 | -27.25883 | -28.79603 | 37258 ft | 484 kts | 103° |
| 2026-05-08 06:57 | -27.27428 | -28.72239 | 37259 ft | 483 kts | 103° |
| 2026-05-08 06:58 | -27.28966 | -28.64892 | 37243 ft | 483 kts | 103° |
| 2026-05-08 06:58 | -27.30500 | -28.57547 | 37242 ft | 482 kts | 103° |
| 2026-05-08 06:59 | -27.32017 | -28.50261 | 37242 ft | 482 kts | 104° |
| 2026-05-08 06:59 | -27.33540 | -28.42925 | 37257 ft | 482 kts | 104° |
| 2026-05-08 07:00 | -27.35062 | -28.35573 | 37262 ft | 484 kts | 104° |
| 2026-05-08 07:00 | -27.36587 | -28.28183 | 37263 ft | 485 kts | 104° |
| 2026-05-08 07:01 | -27.38108 | -28.20796 | 37264 ft | 485 kts | 104° |
| 2026-05-08 07:01 | -27.39626 | -28.13400 | 37252 ft | 485 kts | 104° |
| 2026-05-08 07:02 | -27.41141 | -28.06001 | 37267 ft | 485 kts | 104° |
| 2026-05-08 07:02 | -27.42651 | -27.98601 | 37259 ft | 485 kts | 104° |
| 2026-05-08 07:03 | -27.44157 | -27.91200 | 37262 ft | 486 kts | 104° |
| 2026-05-08 07:03 | -27.45663 | -27.83778 | 37272 ft | 486 kts | 104° |
| 2026-05-08 07:04 | -27.47161 | -27.76376 | 37266 ft | 485 kts | 104° |
| 2026-05-08 07:04 | -27.48653 | -27.68982 | 37265 ft | 483 kts | 104° |
| 2026-05-08 07:05 | -27.50137 | -27.61607 | 37265 ft | 483 kts | 104° |
| 2026-05-08 07:05 | -27.51619 | -27.54219 | 37270 ft | 484 kts | 104° |
| 2026-05-08 07:06 | -27.53102 | -27.46807 | 37272 ft | 484 kts | 103° |
| 2026-05-08 07:06 | -27.54577 | -27.39410 | 37276 ft | 485 kts | 103° |
| 2026-05-08 07:07 | -27.56053 | -27.31986 | 37279 ft | 485 kts | 103° |
| 2026-05-08 07:07 | -27.57513 | -27.24626 | 37278 ft | 483 kts | 103° |
| 2026-05-08 07:08 | -27.58970 | -27.17252 | 37259 ft | 481 kts | 103° |
| 2026-05-08 07:08 | -27.60430 | -27.09847 | 37268 ft | 481 kts | 103° |
| 2026-05-08 07:09 | -27.61870 | -27.02520 | 37276 ft | 483 kts | 103° |
| 2026-05-08 07:09 | -27.63321 | -26.95116 | 37278 ft | 484 kts | 103° |
| 2026-05-08 07:10 | -27.64766 | -26.87718 | 37280 ft | 483 kts | 103° |
| 2026-05-08 07:10 | -27.66205 | -26.80329 | 37281 ft | 482 kts | 103° |
| 2026-05-08 07:11 | -27.67645 | -26.72913 | 37274 ft | 481 kts | 103° |
| 2026-05-08 07:11 | -27.69060 | -26.65609 | 37281 ft | 480 kts | 103° |
| 2026-05-08 07:12 | -27.70481 | -26.58246 | 37288 ft | 481 kts | 103° |
| 2026-05-08 07:12 | -27.71904 | -26.50852 | 37281 ft | 483 kts | 103° |
| 2026-05-08 07:13 | -27.73327 | -26.43435 | 37283 ft | 482 kts | 103° |
| 2026-05-08 07:13 | -27.74742 | -26.36041 | 37279 ft | 482 kts | 103° |
| 2026-05-08 07:14 | -27.76148 | -26.28669 | 37286 ft | 481 kts | 103° |
| 2026-05-08 07:14 | -27.77551 | -26.21291 | 37285 ft | 480 kts | 103° |
| 2026-05-08 07:15 | -27.78951 | -26.13906 | 37271 ft | 480 kts | 103° |
| 2026-05-08 07:15 | -27.80340 | -26.06557 | 37291 ft | 480 kts | 103° |
| 2026-05-08 07:16 | -27.81732 | -25.99166 | 37293 ft | 481 kts | 103° |
| 2026-05-08 07:16 | -27.83126 | -25.91744 | 37291 ft | 483 kts | 103° |
| 2026-05-08 07:17 | -27.84518 | -25.84313 | 37286 ft | 483 kts | 103° |
| 2026-05-08 07:17 | -27.85902 | -25.76892 | 37274 ft | 482 kts | 103° |
| 2026-05-08 07:18 | -27.87277 | -25.69508 | 37279 ft | 480 kts | 103° |
| 2026-05-08 07:18 | -27.88642 | -25.62151 | 37276 ft | 481 kts | 103° |
| 2026-05-08 07:19 | -27.90012 | -25.54739 | 37289 ft | 482 kts | 103° |
| 2026-05-08 07:19 | -27.91380 | -25.47319 | 37294 ft | 483 kts | 103° |
| 2026-05-08 07:20 | -27.92749 | -25.39869 | 37293 ft | 484 kts | 103° |
| 2026-05-08 07:20 | -27.94111 | -25.32432 | 37294 ft | 483 kts | 103° |
| 2026-05-08 07:21 | -27.95469 | -25.24998 | 37281 ft | 482 kts | 103° |
| 2026-05-08 07:21 | -27.96815 | -25.17600 | 37281 ft | 481 kts | 103° |
| 2026-05-08 07:22 | -27.98159 | -25.10194 | 37279 ft | 481 kts | 103° |
| 2026-05-08 07:22 | -27.99505 | -25.02748 | 37297 ft | 483 kts | 103° |
| 2026-05-08 07:23 | -28.01039 | -24.95366 | 37277 ft | 483 kts | 105° |
| 2026-05-08 07:23 | -28.02634 | -24.87974 | 37281 ft | 482 kts | 105° |
| 2026-05-08 07:24 | -28.04260 | -24.80611 | 37288 ft | 482 kts | 105° |
| 2026-05-08 07:24 | -28.05862 | -24.73253 | 37289 ft | 482 kts | 105° |
| 2026-05-08 07:25 | -28.07472 | -24.65863 | 37287 ft | 482 kts | 105° |
| 2026-05-08 07:26 | -28.09854 | -24.54880 | 37286 ft | 480 kts | 105° |
| 2026-05-08 07:26 | -28.11452 | -24.47502 | 37284 ft | 479 kts | 105° |
| 2026-05-08 07:27 | -28.13022 | -24.40222 | 37286 ft | 479 kts | 105° |
| 2026-05-08 07:27 | -28.14601 | -24.32882 | 37289 ft | 480 kts | 104° |
| 2026-05-08 07:28 | -28.16178 | -24.25529 | 37295 ft | 481 kts | 104° |
| 2026-05-08 07:28 | -28.17756 | -24.18151 | 37289 ft | 482 kts | 104° |
| 2026-05-08 07:29 | -28.19328 | -24.10779 | 37293 ft | 481 kts | 104° |
| 2026-05-08 07:29 | -28.20897 | -24.03403 | 37295 ft | 480 kts | 104° |
| 2026-05-08 07:30 | -28.22460 | -23.96037 | 37291 ft | 479 kts | 104° |
| 2026-05-08 07:30 | -28.24010 | -23.88705 | 37291 ft | 479 kts | 104° |
| 2026-05-08 07:31 | -28.25564 | -23.81340 | 37292 ft | 481 kts | 104° |
| 2026-05-08 07:31 | -28.27116 | -23.73959 | 37292 ft | 481 kts | 104° |
| 2026-05-08 07:32 | -28.28666 | -23.66568 | 37296 ft | 481 kts | 104° |
| 2026-05-08 07:32 | -28.30207 | -23.59196 | 37297 ft | 480 kts | 104° |
| 2026-05-08 07:33 | -28.31743 | -23.51833 | 37296 ft | 480 kts | 104° |
| 2026-05-08 07:33 | -28.33017 | -23.45707 | 37296 ft | 480 kts | 104° |
| 2026-05-08 07:34 | -28.34542 | -23.38345 | 37296 ft | 479 kts | 104° |
| 2026-05-08 07:34 | -28.36315 | -23.29781 | 37293 ft | 479 kts | 103° |
| 2026-05-08 07:35 | -28.37584 | -23.23626 | 37297 ft | 479 kts | 103° |
| 2026-05-08 07:35 | -28.39102 | -23.16244 | 37301 ft | 480 kts | 103° |
| 2026-05-08 07:36 | -28.40616 | -23.08860 | 37302 ft | 480 kts | 103° |
| 2026-05-08 07:36 | -28.42117 | -23.01518 | 37297 ft | 479 kts | 103° |
| 2026-05-08 07:37 | -28.43619 | -22.94148 | 37293 ft | 478 kts | 103° |
| 2026-05-08 07:37 | -28.45112 | -22.86802 | 37291 ft | 477 kts | 103° |
| 2026-05-08 07:38 | -28.46603 | -22.79446 | 37294 ft | 478 kts | 103° |
| 2026-05-08 07:38 | -28.48095 | -22.72064 | 37299 ft | 480 kts | 103° |
| 2026-05-08 07:39 | -28.49584 | -22.64669 | 37301 ft | 480 kts | 103° |
| 2026-05-08 07:39 | -28.51070 | -22.57270 | 37298 ft | 479 kts | 103° |
| 2026-05-08 07:40 | -28.52546 | -22.49901 | 37293 ft | 478 kts | 103° |
| 2026-05-08 07:40 | -28.54017 | -22.42535 | 37291 ft | 478 kts | 103° |
| 2026-05-08 07:41 | -28.55487 | -22.35150 | 37291 ft | 479 kts | 103° |
| 2026-05-08 07:41 | -28.56957 | -22.27743 | 37299 ft | 480 kts | 103° |
| 2026-05-08 07:42 | -28.58422 | -22.20340 | 37300 ft | 480 kts | 103° |
| 2026-05-08 07:42 | -28.59884 | -22.12931 | 37294 ft | 479 kts | 103° |
| 2026-05-08 07:43 | -28.61339 | -22.05535 | 37290 ft | 478 kts | 103° |
| 2026-05-08 07:43 | -28.62788 | -21.98144 | 37286 ft | 478 kts | 103° |
| 2026-05-08 07:44 | -28.64231 | -21.90764 | 37293 ft | 479 kts | 103° |
| 2026-05-08 07:44 | -28.65665 | -21.83402 | 37298 ft | 480 kts | 103° |
| 2026-05-08 07:45 | -28.67111 | -21.75963 | 37297 ft | 481 kts | 103° |
| 2026-05-08 07:45 | -28.68550 | -21.68531 | 37295 ft | 480 kts | 103° |
| 2026-05-08 07:46 | -28.69982 | -21.61116 | 37293 ft | 479 kts | 103° |
| 2026-05-08 07:46 | -28.71410 | -21.53701 | 37286 ft | 479 kts | 103° |
| 2026-05-08 07:47 | -28.72835 | -21.46272 | 37290 ft | 480 kts | 103° |
| 2026-05-08 07:47 | -28.74260 | -21.38826 | 37292 ft | 481 kts | 103° |
| 2026-05-08 07:48 | -28.75682 | -21.31369 | 37310 ft | 483 kts | 103° |
| 2026-05-08 07:48 | -28.77104 | -21.23886 | 37295 ft | 482 kts | 103° |
| 2026-05-08 07:49 | -28.78522 | -21.16404 | 37297 ft | 482 kts | 103° |
| 2026-05-08 07:49 | -28.79931 | -21.08946 | 37297 ft | 483 kts | 103° |
| 2026-05-08 07:50 | -28.81343 | -21.01449 | 37292 ft | 483 kts | 103° |
| 2026-05-08 07:50 | -28.82741 | -20.94000 | 37299 ft | 484 kts | 103° |
| 2026-05-08 07:51 | -28.84156 | -20.86436 | 37289 ft | 485 kts | 103° |
| 2026-05-08 07:51 | -28.85556 | -20.78934 | 37290 ft | 484 kts | 103° |
| 2026-05-08 07:52 | -28.86943 | -20.71470 | 37290 ft | 484 kts | 103° |
| 2026-05-08 07:52 | -28.88334 | -20.63958 | 37293 ft | 484 kts | 103° |
| 2026-05-08 07:53 | -28.89722 | -20.56445 | 37297 ft | 484 kts | 103° |
| 2026-05-08 07:53 | -28.91108 | -20.48915 | 37292 ft | 485 kts | 103° |
| 2026-05-08 07:54 | -28.92487 | -20.41400 | 37293 ft | 484 kts | 103° |
| 2026-05-08 07:54 | -28.93862 | -20.33877 | 37289 ft | 484 kts | 103° |
| 2026-05-08 07:55 | -28.95234 | -20.26353 | 37286 ft | 483 kts | 103° |
| 2026-05-08 07:55 | -28.96595 | -20.18859 | 37281 ft | 483 kts | 103° |
| 2026-05-08 07:56 | -28.97956 | -20.11344 | 37281 ft | 483 kts | 103° |
| 2026-05-08 07:56 | -28.99312 | -20.03831 | 37287 ft | 485 kts | 103° |
| 2026-05-08 07:57 | -29.00825 | -19.96315 | 37291 ft | 485 kts | 105° |
| 2026-05-08 07:57 | -29.02461 | -19.88816 | 37298 ft | 487 kts | 105° |
| 2026-05-08 07:58 | -29.04109 | -19.81327 | 37292 ft | 485 kts | 105° |
| 2026-05-08 07:58 | -29.05746 | -19.73850 | 37291 ft | 484 kts | 105° |
| 2026-05-08 07:59 | -29.07370 | -19.66399 | 37286 ft | 484 kts | 105° |
| 2026-05-08 07:59 | -29.08998 | -19.58930 | 37290 ft | 485 kts | 105° |
| 2026-05-08 08:00 | -29.10626 | -19.51417 | 37295 ft | 487 kts | 105° |
| 2026-05-08 08:00 | -29.12252 | -19.43910 | 37297 ft | 488 kts | 105° |
| 2026-05-08 08:01 | -29.13878 | -19.36368 | 37298 ft | 487 kts | 105° |
| 2026-05-08 08:01 | -29.15496 | -19.28852 | 37306 ft | 487 kts | 105° |
| 2026-05-08 08:02 | -29.17111 | -19.21320 | 37301 ft | 487 kts | 105° |
| 2026-05-08 08:02 | -29.18722 | -19.13788 | 37304 ft | 487 kts | 105° |
| 2026-05-08 08:03 | -29.20325 | -19.06269 | 37301 ft | 486 kts | 105° |
| 2026-05-08 08:03 | -29.21924 | -18.98752 | 37298 ft | 486 kts | 105° |
| 2026-05-08 08:04 | -29.23505 | -18.91293 | 37298 ft | 486 kts | 105° |
| 2026-05-08 08:04 | -29.25098 | -18.83760 | 37307 ft | 488 kts | 105° |
| 2026-05-08 08:05 | -29.26692 | -18.76196 | 37305 ft | 489 kts | 105° |
| 2026-05-08 08:05 | -29.28293 | -18.68577 | 37301 ft | 489 kts | 105° |
| 2026-05-08 08:06 | -29.29867 | -18.61061 | 37304 ft | 488 kts | 105° |
| 2026-05-08 08:06 | -29.31445 | -18.53508 | 37300 ft | 487 kts | 105° |
| 2026-05-08 08:07 | -29.33014 | -18.45971 | 37301 ft | 487 kts | 105° |
| 2026-05-08 08:07 | -29.34588 | -18.38393 | 37306 ft | 489 kts | 105° |
| 2026-05-08 08:08 | -29.36160 | -18.30798 | 37300 ft | 490 kts | 105° |
| 2026-05-08 08:08 | -29.37725 | -18.23210 | 37302 ft | 490 kts | 105° |
| 2026-05-08 08:09 | -29.39289 | -18.15609 | 37299 ft | 488 kts | 105° |
| 2026-05-08 08:09 | -29.40840 | -18.08046 | 37301 ft | 488 kts | 105° |
| 2026-05-08 08:10 | -29.42389 | -18.00471 | 37301 ft | 487 kts | 105° |
| 2026-05-08 08:10 | -29.43934 | -17.92890 | 37304 ft | 488 kts | 105° |
| 2026-05-08 08:11 | -29.45477 | -17.85299 | 37305 ft | 490 kts | 105° |
| 2026-05-08 08:11 | -29.47019 | -17.77686 | 37304 ft | 490 kts | 105° |
| 2026-05-08 08:12 | -29.48557 | -17.70070 | 37302 ft | 489 kts | 105° |
| 2026-05-08 08:12 | -29.50087 | -17.62470 | 37302 ft | 488 kts | 104° |
| 2026-05-08 08:13 | -29.51611 | -17.54878 | 37298 ft | 488 kts | 104° |
| 2026-05-08 08:13 | -29.53128 | -17.47295 | 37301 ft | 487 kts | 104° |
| 2026-05-08 08:14 | -29.54628 | -17.39774 | 37300 ft | 486 kts | 104° |
| 2026-05-08 08:14 | -29.56134 | -17.32196 | 37298 ft | 487 kts | 104° |
| 2026-05-08 08:15 | -29.57641 | -17.24593 | 37301 ft | 489 kts | 104° |
| 2026-05-08 08:15 | -29.59148 | -17.16964 | 37305 ft | 489 kts | 104° |
| 2026-05-08 08:16 | -29.60648 | -17.09349 | 37301 ft | 488 kts | 104° |
| 2026-05-08 08:16 | -29.62135 | -17.01773 | 37296 ft | 486 kts | 104° |
| 2026-05-08 08:17 | -29.63620 | -16.94182 | 37295 ft | 486 kts | 104° |
| 2026-05-08 08:17 | -29.65098 | -16.86603 | 37300 ft | 487 kts | 104° |
| 2026-05-08 08:18 | -29.66582 | -16.78972 | 37301 ft | 489 kts | 104° |
| 2026-05-08 08:18 | -29.68063 | -16.71331 | 37300 ft | 490 kts | 104° |
| 2026-05-08 08:19 | -29.69538 | -16.63691 | 37301 ft | 490 kts | 104° |
| 2026-05-08 08:19 | -29.71011 | -16.56043 | 37295 ft | 489 kts | 104° |
| 2026-05-08 08:20 | -29.72474 | -16.48419 | 37289 ft | 488 kts | 104° |
| 2026-05-08 08:20 | -29.73922 | -16.40846 | 37292 ft | 489 kts | 104° |
| 2026-05-08 08:21 | -29.75382 | -16.33189 | 37300 ft | 491 kts | 104° |
| 2026-05-08 08:21 | -29.76841 | -16.25509 | 37294 ft | 492 kts | 104° |
| 2026-05-08 08:22 | -29.78299 | -16.17810 | 37297 ft | 492 kts | 104° |
| 2026-05-08 08:22 | -29.79752 | -16.10113 | 37296 ft | 491 kts | 104° |
| 2026-05-08 08:23 | -29.80961 | -16.03689 | 37295 ft | 490 kts | 104° |
| 2026-05-08 08:23 | -29.82401 | -15.96010 | 37293 ft | 490 kts | 104° |
| 2026-05-08 08:24 | -29.83829 | -15.88372 | 37297 ft | 492 kts | 104° |
| 2026-05-08 08:24 | -29.85268 | -15.80650 | 37298 ft | 493 kts | 104° |
| 2026-05-08 08:25 | -29.86702 | -15.72925 | 37299 ft | 494 kts | 104° |
| 2026-05-08 08:25 | -29.88136 | -15.65175 | 37297 ft | 494 kts | 104° |
| 2026-05-08 08:26 | -29.89564 | -15.57433 | 37300 ft | 493 kts | 104° |
| 2026-05-08 08:26 | -29.90983 | -15.49709 | 37299 ft | 493 kts | 104° |
| 2026-05-08 08:27 | -29.92398 | -15.41984 | 37294 ft | 492 kts | 104° |
| 2026-05-08 08:27 | -29.93804 | -15.34278 | 37296 ft | 492 kts | 104° |
| 2026-05-08 08:28 | -29.95214 | -15.26527 | 37299 ft | 495 kts | 104° |
| 2026-05-08 08:28 | -29.96625 | -15.18741 | 37299 ft | 495 kts | 104° |
| 2026-05-08 08:29 | -29.98026 | -15.10981 | 37297 ft | 494 kts | 104° |
| 2026-05-08 08:29 | -29.99423 | -15.03219 | 37291 ft | 493 kts | 104° |